Time;durP1;ratioP1;P1;durP2;ratioP2;P2;SDS_P1;SDS_P2;PMS_P1;PMS_P2;Temp;Humidity;BMP_temperature;BMP_pressure;BME280_temperature;BME280_humidity;BME280_pressure;Samples;Min_cycle;Max_cycle;Signal;HPM_P1;HPM_P2
2021/05/01 00:01:08;;;;;;;30.33;16.07;;;;;;;;;;5052392;28;20022;-79
2021/05/01 00:03:34;;;;;;;29.77;17.03;;;;;;;;;;5052266;28;20079;-79
2021/05/01 00:05:59;;;;;;;32.33;16.10;;;;;;;;;;5052494;28;20170;-79
2021/05/01 00:08:28;;;;;;;32.30;17.10;;;;;;;;;;5051419;28;20111;-79
2021/05/01 00:10:54;;;;;;;32.07;16.67;;;;;;;;;;5042489;28;20349;-79
2021/05/01 00:13:19;;;;;;;30.60;15.80;;;;;;;;;;5054950;28;20033;-79
2021/05/01 00:15:44;;;;;;;31.70;16.30;;;;;;;;;;5052247;28;20021;-79
2021/05/01 00:18:09;;;;;;;28.37;16.37;;;;;;;;;;5055950;28;20013;-79
2021/05/01 00:20:34;;;;;;;27.53;16.57;;;;;;;;;;5056219;28;20064;-79
2021/05/01 00:22:59;;;;;;;27.27;15.80;;;;;;;;;;5054686;28;20017;-79
2021/05/01 00:25:25;;;;;;;34.00;16.87;;;;;;;;;;5056146;28;20407;-79
2021/05/01 00:27:50;;;;;;;26.37;15.03;;;;;;;;;;5054702;28;20021;-79
2021/05/01 00:30:15;;;;;;;30.93;15.70;;;;;;;;;;5055943;28;20025;-79
2021/05/01 00:32:40;;;;;;;28.57;14.80;;;;;;;;;;5055763;28;20017;-79
2021/05/01 00:35:06;;;;;;;31.17;14.60;;;;;;;;;;5054537;28;20506;-79
2021/05/01 00:37:31;;;;;;;28.03;15.40;;;;;;;;;;5055687;28;20013;-79
2021/05/01 00:39:56;;;;;;;27.80;14.90;;;;;;;;;;5054563;28;20409;-79
2021/05/01 00:42:21;;;;;;;28.47;14.60;;;;;;;;;;5054469;28;20017;-79
2021/05/01 00:44:47;;;;;;;26.73;14.67;;;;;;;;;;5055544;28;20021;-79
2021/05/01 00:47:12;;;;;;;31.30;17.13;;;;;;;;;;5055719;28;20092;-79
2021/05/01 00:49:37;;;;;;;30.90;17.50;;;;;;;;;;5053854;28;20013;-79
2021/05/01 00:52:02;;;;;;;28.67;16.93;;;;;;;;;;5054429;28;20074;-79
2021/05/01 00:54:28;;;;;;;30.77;17.97;;;;;;;;;;5054158;28;20535;-79
2021/05/01 00:56:53;;;;;;;37.77;19.17;;;;;;;;;;5055323;28;20005;-79
2021/05/01 00:59:18;;;;;;;35.87;18.73;;;;;;;;;;5055410;28;20049;-79
2021/05/01 01:01:52;;;;;;;41.07;21.23;;;;;;;;;;5053920;28;20436;-79
2021/05/01 01:04:18;;;;;;;40.07;19.93;;;;;;;;;;5055370;28;20100;-79
2021/05/01 01:06:44;;;;;;;36.17;19.57;;;;;;;;;;5055150;28;20092;-79
2021/05/01 01:09:09;;;;;;;38.00;19.50;;;;;;;;;;5055212;28;20460;-79
2021/05/01 01:11:35;;;;;;;33.73;18.40;;;;;;;;;;5055077;28;20476;-79
2021/05/01 01:14:01;;;;;;;34.23;18.23;;;;;;;;;;5053936;28;20056;-79
2021/05/01 01:16:28;;;;;;;39.63;20.00;;;;;;;;;;5055045;28;20036;-79
2021/05/01 01:18:53;;;;;;;36.40;18.90;;;;;;;;;;5054949;28;20373;-79
2021/05/01 01:21:20;;;;;;;38.93;19.33;;;;;;;;;;5052750;28;20017;-79
2021/05/01 01:23:45;;;;;;;38.83;18.07;;;;;;;;;;5053394;28;20040;-79
2021/05/01 01:26:11;;;;;;;40.10;18.43;;;;;;;;;;5054948;28;20093;-79
2021/05/01 01:28:36;;;;;;;40.33;19.37;;;;;;;;;;5054899;28;20021;-79
2021/05/01 01:31:01;;;;;;;42.80;22.10;;;;;;;;;;5054669;28;20017;-79
2021/05/01 01:33:26;;;;;;;48.07;25.90;;;;;;;;;;5053665;28;20032;-79
2021/05/01 01:35:51;;;;;;;43.00;25.43;;;;;;;;;;5053205;28;20028;-79
2021/05/01 01:38:17;;;;;;;45.60;23.53;;;;;;;;;;5054718;28;20029;-79
2021/05/01 01:40:42;;;;;;;44.07;24.07;;;;;;;;;;5053114;28;20040;-79
2021/05/01 01:43:08;;;;;;;40.70;22.47;;;;;;;;;;5054892;28;20496;-79
2021/05/01 01:45:34;;;;;;;37.83;21.30;;;;;;;;;;5053384;28;20170;-79
2021/05/01 01:47:59;;;;;;;38.13;21.10;;;;;;;;;;5053578;28;20063;-79
2021/05/01 01:50:24;;;;;;;36.70;20.77;;;;;;;;;;5054481;28;20013;-79
2021/05/01 01:52:50;;;;;;;35.77;20.13;;;;;;;;;;5054225;28;20013;-79
2021/05/01 01:55:16;;;;;;;39.13;20.33;;;;;;;;;;5053057;28;20109;-79
2021/05/01 01:57:42;;;;;;;36.73;20.77;;;;;;;;;;5054210;28;20017;-79
2021/05/01 02:00:12;;;;;;;36.13;20.43;;;;;;;;;;5054380;28;20120;-79
2021/05/01 02:02:38;;;;;;;42.00;22.17;;;;;;;;;;5052999;28;20107;-79
2021/05/01 02:05:03;;;;;;;39.13;21.63;;;;;;;;;;5054058;28;20041;-79
2021/05/01 02:07:29;;;;;;;38.53;21.47;;;;;;;;;;5053018;28;20384;-79
2021/05/01 02:09:54;;;;;;;41.83;21.37;;;;;;;;;;5052635;28;20126;-79
2021/05/01 02:12:19;;;;;;;42.17;21.63;;;;;;;;;;5052794;28;20044;-79
2021/05/01 02:14:44;;;;;;;34.67;20.07;;;;;;;;;;5052457;28;20039;-79
2021/05/01 02:17:09;;;;;;;37.13;20.17;;;;;;;;;;5052703;28;20005;-79
2021/05/01 02:19:35;;;;;;;37.33;20.70;;;;;;;;;;5052630;28;20075;-79
2021/05/01 02:22:00;;;;;;;37.80;20.77;;;;;;;;;;5052441;28;20135;-79
2021/05/01 02:24:25;;;;;;;39.40;20.40;;;;;;;;;;5053722;28;20005;-79
2021/05/01 02:26:50;;;;;;;37.23;20.63;;;;;;;;;;5052929;28;20091;-79
2021/05/01 02:29:15;;;;;;;41.30;21.73;;;;;;;;;;5053495;28;20273;-79
2021/05/01 02:31:41;;;;;;;37.93;20.63;;;;;;;;;;5053466;28;20018;-79
2021/05/01 02:34:06;;;;;;;39.07;20.80;;;;;;;;;;5053505;28;20143;-79
2021/05/01 02:36:31;;;;;;;39.10;20.00;;;;;;;;;;5053490;28;20017;-79
2021/05/01 02:38:56;;;;;;;37.77;20.17;;;;;;;;;;5052116;28;20020;-79
2021/05/01 02:41:22;;;;;;;38.17;20.67;;;;;;;;;;5053526;28;20071;-78
2021/05/01 02:43:48;;;;;;;42.20;20.93;;;;;;;;;;5053521;28;20027;-79
2021/05/01 02:46:13;;;;;;;37.77;19.87;;;;;;;;;;5053258;28;20013;-79
2021/05/01 02:48:38;;;;;;;35.90;20.33;;;;;;;;;;5052050;28;20025;-79
2021/05/01 02:51:04;;;;;;;34.57;18.30;;;;;;;;;;5053067;28;20025;-79
2021/05/01 02:53:29;;;;;;;36.23;19.00;;;;;;;;;;5053727;28;20025;-79
2021/05/01 02:55:54;;;;;;;35.07;19.87;;;;;;;;;;5053125;28;20032;-79
2021/05/01 02:58:19;;;;;;;34.83;19.53;;;;;;;;;;5051697;28;20499;-79
2021/05/01 03:00:44;;;;;;;36.00;19.50;;;;;;;;;;5053265;28;20021;-79
2021/05/01 03:03:10;;;;;;;35.97;20.33;;;;;;;;;;5051586;28;20044;-79
2021/05/01 03:05:35;;;;;;;36.97;19.60;;;;;;;;;;5053073;28;20017;-79
2021/05/01 03:08:00;;;;;;;36.10;19.73;;;;;;;;;;5051677;28;20029;-79
2021/05/01 03:10:26;;;;;;;31.60;18.37;;;;;;;;;;5053191;28;20044;-79
2021/05/01 03:12:52;;;;;;;39.53;19.90;;;;;;;;;;5052864;28;20052;-79
2021/05/01 03:15:17;;;;;;;31.37;18.37;;;;;;;;;;5052677;28;20021;-79
2021/05/01 03:17:43;;;;;;;30.00;18.80;;;;;;;;;;5052913;28;20021;-78
2021/05/01 03:20:08;;;;;;;32.97;17.57;;;;;;;;;;5051468;28;20028;-79
2021/05/01 03:22:34;;;;;;;29.30;16.60;;;;;;;;;;5052752;28;20035;-78
2021/05/01 03:24:59;;;;;;;35.03;17.63;;;;;;;;;;5052621;28;20020;-79
2021/05/01 03:27:24;;;;;;;35.10;18.57;;;;;;;;;;5051323;28;20017;-79
2021/05/01 03:29:50;;;;;;;34.90;19.07;;;;;;;;;;5051408;28;20021;-79
2021/05/01 03:32:15;;;;;;;34.43;19.70;;;;;;;;;;5051181;28;20112;-79
2021/05/01 03:34:40;;;;;;;36.27;20.67;;;;;;;;;;5051320;28;20031;-79
2021/05/01 03:37:05;;;;;;;38.57;21.70;;;;;;;;;;5052630;28;20530;-79
2021/05/01 03:39:31;;;;;;;42.03;20.07;;;;;;;;;;5052387;28;20453;-79
2021/05/01 03:41:56;;;;;;;41.23;20.87;;;;;;;;;;5051358;28;20404;-79
2021/05/01 03:44:21;;;;;;;42.03;22.07;;;;;;;;;;5056707;28;20429;-79
2021/05/01 03:46:46;;;;;;;38.50;22.63;;;;;;;;;;5057896;28;20039;-79
2021/05/01 03:49:11;;;;;;;37.50;20.73;;;;;;;;;;5057732;28;20029;-79
2021/05/01 03:51:36;;;;;;;46.43;22.50;;;;;;;;;;5059148;28;20028;-79
2021/05/01 03:54:02;;;;;;;49.67;27.43;;;;;;;;;;5059174;28;20543;-79
2021/05/01 03:56:27;;;;;;;52.77;27.47;;;;;;;;;;5057572;28;20437;-79
2021/05/01 03:58:52;;;;;;;55.93;26.37;;;;;;;;;;5057817;28;20112;-79
2021/05/01 04:01:17;;;;;;;57.63;28.43;;;;;;;;;;5055292;28;20070;-78
2021/05/01 04:03:43;;;;;;;48.33;25.93;;;;;;;;;;5079773;28;20024;-79
2021/05/01 04:06:08;;;;;;;46.90;25.50;;;;;;;;;;5058901;28;20083;-79
2021/05/01 04:08:33;;;;;;;48.37;24.47;;;;;;;;;;5058901;28;20029;-79
2021/05/01 04:10:59;;;;;;;43.30;24.20;;;;;;;;;;5057997;28;20098;-79
2021/05/01 04:13:25;;;;;;;48.93;23.23;;;;;;;;;;5057411;28;20024;-79
2021/05/01 04:15:50;;;;;;;46.93;23.17;;;;;;;;;;5057598;28;20036;-78
2021/05/01 04:18:15;;;;;;;49.83;24.93;;;;;;;;;;5057466;28;20078;-78
2021/05/01 04:20:41;;;;;;;52.63;23.80;;;;;;;;;;5057913;28;20039;-78
2021/05/01 04:23:08;;;;;;;55.43;27.17;;;;;;;;;;5058939;28;20419;-79
2021/05/01 04:25:33;;;;;;;59.27;26.47;;;;;;;;;;5058843;28;20472;-78
2021/05/01 04:27:58;;;;;;;62.33;28.43;;;;;;;;;;5057539;28;20170;-79
2021/05/01 04:30:24;;;;;;;58.87;29.77;;;;;;;;;;5057566;28;20055;-78
2021/05/01 04:32:50;;;;;;;78.17;32.43;;;;;;;;;;5058875;28;20013;-79
2021/05/01 04:35:15;;;;;;;84.17;31.90;;;;;;;;;;5057461;28;20117;-79
2021/05/01 04:37:40;;;;;;;84.03;32.53;;;;;;;;;;5057328;28;20048;-79
2021/05/01 04:40:06;;;;;;;107.60;31.47;;;;;;;;;;5058780;28;20039;-79
2021/05/01 04:42:31;;;;;;;90.07;31.67;;;;;;;;;;5057557;28;20020;-78
2021/05/01 04:44:56;;;;;;;94.70;32.40;;;;;;;;;;5058752;28;20384;-79
2021/05/01 04:47:22;;;;;;;84.00;33.50;;;;;;;;;;5057437;28;20070;-79
2021/05/01 04:49:47;;;;;;;75.30;33.20;;;;;;;;;;5058530;28;20388;-79
2021/05/01 04:52:12;;;;;;;80.17;34.10;;;;;;;;;;5058945;28;20048;-79
2021/05/01 04:54:37;;;;;;;73.17;32.77;;;;;;;;;;5058054;28;20021;-79
2021/05/01 04:57:03;;;;;;;71.53;32.87;;;;;;;;;;5054198;28;20031;-79
2021/05/01 04:59:28;;;;;;;70.53;31.70;;;;;;;;;;5055105;28;20108;-79
2021/05/01 05:01:53;;;;;;;69.07;30.63;;;;;;;;;;5055446;28;20024;-78
2021/05/01 05:04:18;;;;;;;63.80;30.73;;;;;;;;;;5055430;28;20379;-79
2021/05/01 05:06:43;;;;;;;94.23;31.60;;;;;;;;;;5055213;28;20029;-79
2021/05/01 05:09:09;;;;;;;77.70;33.13;;;;;;;;;;5055261;28;20057;-79
2021/05/01 05:11:34;;;;;;;74.37;32.23;;;;;;;;;;5055609;28;20111;-79
2021/05/01 05:14:02;;;;;;;74.43;31.13;;;;;;;;;;5053780;28;20071;-79
2021/05/01 05:16:27;;;;;;;93.60;36.70;;;;;;;;;;5053559;28;20393;-78
2021/05/01 05:18:55;;;;;;;111.30;39.03;;;;;;;;;;5053807;28;20017;-79
2021/05/01 05:21:21;;;;;;;73.60;35.73;;;;;;;;;;5055107;28;20017;-79
2021/05/01 05:23:46;;;;;;;71.90;35.13;;;;;;;;;;5053418;28;20017;-79
2021/05/01 05:26:12;;;;;;;110.40;35.10;;;;;;;;;;5054967;28;20326;-79
2021/05/01 05:28:37;;;;;;;67.77;34.00;;;;;;;;;;5053595;28;20025;-79
2021/05/01 05:31:02;;;;;;;74.07;34.60;;;;;;;;;;5053408;28;20372;-79
2021/05/01 05:33:29;;;;;;;68.07;34.30;;;;;;;;;;5054876;28;20025;-79
2021/05/01 05:35:54;;;;;;;71.37;35.60;;;;;;;;;;5053202;28;20051;-79
2021/05/01 05:38:20;;;;;;;74.50;36.70;;;;;;;;;;5053475;28;20468;-79
2021/05/01 05:40:45;;;;;;;65.70;34.57;;;;;;;;;;5053265;28;20135;-79
2021/05/01 05:43:10;;;;;;;66.63;33.40;;;;;;;;;;5053362;28;20009;-79
2021/05/01 05:45:36;;;;;;;70.23;35.80;;;;;;;;;;5054574;28;20036;-79
2021/05/01 05:48:03;;;;;;;65.80;35.60;;;;;;;;;;5052999;28;20027;-79
2021/05/01 05:50:29;;;;;;;64.83;35.13;;;;;;;;;;5053186;28;20025;-79
2021/05/01 05:52:54;;;;;;;75.23;38.33;;;;;;;;;;5054282;28;20024;-79
2021/05/01 05:55:19;;;;;;;84.50;36.43;;;;;;;;;;5052973;28;20452;-79
2021/05/01 05:57:47;;;;;;;69.97;35.37;;;;;;;;;;5054238;28;20083;-79
2021/05/01 06:00:12;;;;;;;61.23;34.00;;;;;;;;;;5054381;28;20009;-79
2021/05/01 06:02:41;;;;;;;70.77;34.43;;;;;;;;;;5052849;28;20062;-79
2021/05/01 06:05:06;;;;;;;72.17;37.47;;;;;;;;;;5052787;28;20013;-79
2021/05/01 06:07:36;;;;;;;73.80;36.03;;;;;;;;;;5053647;28;20028;-79
2021/05/01 06:10:05;;;;;;;67.67;36.37;;;;;;;;;;5053948;28;20039;-79
2021/05/01 06:12:32;;;;;;;73.00;35.67;;;;;;;;;;5052596;28;20021;-79
2021/05/01 06:15:00;;;;;;;59.43;33.60;;;;;;;;;;5053875;28;20028;-79
2021/05/01 06:17:26;;;;;;;67.47;34.20;;;;;;;;;;5052635;28;20028;-79
2021/05/01 06:19:52;;;;;;;61.77;34.50;;;;;;;;;;5052449;28;20016;-79
2021/05/01 06:22:17;;;;;;;64.97;34.73;;;;;;;;;;5052590;28;20020;-79
2021/05/01 06:24:43;;;;;;;61.33;32.93;;;;;;;;;;5053753;28;20372;-79
2021/05/01 06:27:09;;;;;;;61.90;34.47;;;;;;;;;;5053677;28;20377;-79
2021/05/01 06:29:35;;;;;;;62.83;33.70;;;;;;;;;;5052470;28;20028;-79
2021/05/01 06:32:01;;;;;;;63.53;33.40;;;;;;;;;;5053711;28;20151;-79
2021/05/01 06:34:26;;;;;;;59.00;32.50;;;;;;;;;;5052157;28;20071;-79
2021/05/01 06:36:52;;;;;;;60.10;31.83;;;;;;;;;;5053644;28;20017;-79
2021/05/01 06:39:18;;;;;;;61.60;32.47;;;;;;;;;;5053329;28;20021;-79
2021/05/01 06:41:53;;;;;;;58.10;32.50;;;;;;;;;;5052150;28;20108;-79
2021/05/01 06:44:28;;;;;;;67.23;33.57;;;;;;;;;;5053386;28;20017;-79
2021/05/01 06:46:54;;;;;;;59.33;32.33;;;;;;;;;;5053429;28;20464;-79
2021/05/01 06:49:28;;;;;;;68.03;34.70;;;;;;;;;;5051948;28;20024;-79
2021/05/01 06:51:54;;;;;;;60.70;31.83;;;;;;;;;;5052066;28;20043;-79
2021/05/01 06:54:21;;;;;;;57.93;30.40;;;;;;;;;;5051823;28;20112;-79
2021/05/01 06:56:47;;;;;;;65.27;32.87;;;;;;;;;;5053329;28;20068;-79
2021/05/01 06:59:14;;;;;;;59.23;29.73;;;;;;;;;;5052021;28;20116;-79
2021/05/01 07:01:39;;;;;;;56.90;31.30;;;;;;;;;;5051665;28;20444;-79
2021/05/01 07:04:05;;;;;;;51.37;31.10;;;;;;;;;;5053117;28;20093;-79
2021/05/01 07:06:31;;;;;;;56.40;30.60;;;;;;;;;;5052933;28;20099;-79
2021/05/01 07:08:59;;;;;;;65.60;31.47;;;;;;;;;;5051629;28;20599;-79
2021/05/01 07:11:24;;;;;;;56.93;31.00;;;;;;;;;;5051457;28;20021;-79
2021/05/01 07:13:50;;;;;;;58.23;29.30;;;;;;;;;;5051493;28;20170;-79
2021/05/01 07:16:16;;;;;;;57.73;26.70;;;;;;;;;;5052874;28;20100;-79
2021/05/01 07:18:42;;;;;;;47.63;23.67;;;;;;;;;;5051921;28;20448;-79
2021/05/01 07:21:08;;;;;;;43.23;22.23;;;;;;;;;;5051577;28;20029;-79
2021/05/01 07:23:34;;;;;;;40.53;23.50;;;;;;;;;;5051419;28;20036;-79
2021/05/01 07:25:59;;;;;;;42.87;23.00;;;;;;;;;;5051391;28;20033;-79
2021/05/01 07:28:26;;;;;;;37.33;19.40;;;;;;;;;;5052914;28;20021;-79
2021/05/01 07:30:55;;;;;;;29.90;15.27;;;;;;;;;;5052756;28;20017;-79
2021/05/01 07:33:24;;;;;;;22.60;12.70;;;;;;;;;;5051517;28;20029;-79
2021/05/01 07:35:50;;;;;;;23.93;12.23;;;;;;;;;;5051197;28;20152;-79
2021/05/01 07:38:16;;;;;;;30.03;15.43;;;;;;;;;;5052664;28;20518;-79
2021/05/01 07:40:42;;;;;;;31.63;15.30;;;;;;;;;;5052540;28;20024;-79
2021/05/01 07:43:08;;;;;;;25.70;13.77;;;;;;;;;;5051310;28;20040;-79
2021/05/01 07:45:34;;;;;;;23.43;13.87;;;;;;;;;;5052622;28;20020;-79
2021/05/01 07:48:02;;;;;;;28.63;13.77;;;;;;;;;;5052427;28;20031;-79
2021/05/01 07:50:27;;;;;;;24.17;11.67;;;;;;;;;;5052614;28;20036;-79
2021/05/01 07:52:53;;;;;;;26.53;13.23;;;;;;;;;;5052685;28;20017;-79
2021/05/01 07:55:18;;;;;;;23.23;13.27;;;;;;;;;;5052516;28;20029;-79
2021/05/01 07:57:43;;;;;;;22.97;13.10;;;;;;;;;;5051048;28;20027;-79
2021/05/01 08:00:09;;;;;;;22.30;11.80;;;;;;;;;;5051213;28;20056;-79
2021/05/01 08:02:35;;;;;;;23.17;13.00;;;;;;;;;;5051474;28;20025;-79
2021/05/01 08:05:01;;;;;;;29.83;15.17;;;;;;;;;;5050993;28;20021;-79
2021/05/01 08:07:26;;;;;;;29.83;15.00;;;;;;;;;;5051119;28;20021;-79
2021/05/01 08:09:51;;;;;;;25.77;14.67;;;;;;;;;;5052265;28;20106;-79
2021/05/01 08:12:16;;;;;;;28.23;15.27;;;;;;;;;;5052371;28;20031;-79
2021/05/01 08:14:41;;;;;;;28.40;14.07;;;;;;;;;;5050806;28;20029;-79
2021/05/01 08:17:06;;;;;;;20.33;12.97;;;;;;;;;;5045871;28;20432;-79
2021/05/01 08:19:32;;;;;;;23.30;13.13;;;;;;;;;;5047194;28;20491;-80
2021/05/01 08:21:57;;;;;;;22.93;13.33;;;;;;;;;;5050869;28;20017;-79
2021/05/01 08:24:22;;;;;;;24.10;13.30;;;;;;;;;;5052213;28;20372;-79
2021/05/01 08:26:47;;;;;;;25.37;14.30;;;;;;;;;;5051005;28;20036;-79
2021/05/01 08:29:12;;;;;;;22.60;12.70;;;;;;;;;;5050797;28;20028;-79
2021/05/01 08:31:38;;;;;;;24.70;12.53;;;;;;;;;;5056250;28;20107;-79
2021/05/01 08:34:03;;;;;;;18.10;11.47;;;;;;;;;;5055889;28;20119;-79
2021/05/01 08:36:28;;;;;;;22.03;11.67;;;;;;;;;;5055854;28;20025;-79
2021/05/01 08:38:53;;;;;;;17.50;11.00;;;;;;;;;;5054654;28;20020;-79
2021/05/01 08:41:20;;;;;;;23.03;10.90;;;;;;;;;;5054379;28;20113;-79
2021/05/01 08:43:45;;;;;;;21.07;12.10;;;;;;;;;;5054495;28;20032;-79
2021/05/01 08:46:14;;;;;;;22.07;12.67;;;;;;;;;;5055657;28;20024;-79
2021/05/01 08:48:46;;;;;;;21.83;12.60;;;;;;;;;;5054446;28;20037;-79
2021/05/01 08:51:12;;;;;;;20.70;11.73;;;;;;;;;;5055525;28;20021;-79
2021/05/01 08:53:38;;;;;;;19.17;11.63;;;;;;;;;;5055645;28;20538;-79
2021/05/01 08:56:03;;;;;;;13.93;9.13;;;;;;;;;;5054035;28;20029;-79
2021/05/01 08:58:28;;;;;;;23.43;11.87;;;;;;;;;;5055433;28;20017;-79
2021/05/01 09:00:54;;;;;;;22.17;13.73;;;;;;;;;;5055582;28;20025;-79
2021/05/01 09:03:21;;;;;;;17.33;12.53;;;;;;;;;;5055324;28;20092;-79
2021/05/01 09:05:47;;;;;;;18.97;11.47;;;;;;;;;;5054139;28;20020;-79
2021/05/01 09:08:15;;;;;;;23.53;11.90;;;;;;;;;;5055119;28;20096;-79
2021/05/01 09:10:42;;;;;;;18.30;11.60;;;;;;;;;;5045707;28;20022;-79
2021/05/01 09:13:11;;;;;;;20.40;11.83;;;;;;;;;;5050740;28;20036;-79
2021/05/01 09:15:37;;;;;;;21.70;12.20;;;;;;;;;;5055361;28;20361;-79
2021/05/01 09:18:04;;;;;;;19.33;11.87;;;;;;;;;;5053649;28;20021;-79
2021/05/01 09:20:29;;;;;;;20.98;12.75;;;;;;;;;;5055116;28;20020;-79
2021/05/01 09:22:56;;;;;;;21.53;11.97;;;;;;;;;;5053790;28;20017;-79
2021/05/01 09:25:21;;;;;;;18.53;12.03;;;;;;;;;;5054748;28;20530;-79
2021/05/01 09:28:02;;;;;;;22.43;11.80;;;;;;;;;;5054982;28;20029;-79
2021/05/01 09:30:28;;;;;;;20.17;12.80;;;;;;;;;;5053469;28;20035;-79
2021/05/01 09:33:31;;;;;;;22.63;12.77;;;;;;;;;;5055161;28;20025;-79
2021/05/01 09:35:57;;;;;;;30.13;12.73;;;;;;;;;;5052446;28;20039;-79
2021/05/01 09:38:22;;;;;;;26.05;13.07;;;;;;;;;;5069341;28;20025;-79
2021/05/01 09:40:48;;;;;;;20.53;12.47;;;;;;;;;;5045605;28;20057;-79
2021/05/01 09:43:14;;;;;;;15.68;11.10;;;;;;;;;;5054273;28;20413;-79
2021/05/01 09:45:39;;;;;;;21.58;10.15;;;;;;;;;;5054715;28;20060;-79
2021/05/01 09:48:23;;;;;;;20.08;11.07;;;;;;;;;;5048897;28;20039;-79
2021/05/01 09:51:01;;;;;;;21.87;11.57;;;;;;;;;;5048622;28;20180;-79
2021/05/01 09:53:26;;;;;;;21.60;12.70;;;;;;;;;;5053675;28;20526;-79
2021/05/01 09:55:58;;;;;;;26.55;12.52;;;;;;;;;;5053086;28;20112;-79
2021/05/01 09:58:25;;;;;;;21.63;12.57;;;;;;;;;;5054683;28;20017;-79
2021/05/01 10:00:52;;;;;;;20.00;11.77;;;;;;;;;;5052955;28;20260;-79
2021/05/01 10:03:24;;;;;;;30.87;14.67;;;;;;;;;;5052685;28;20071;-79
2021/05/01 10:05:49;;;;;;;;;;;;;;;;;;5054497;28;20057;-79
2021/05/01 10:08:15;;;;;;;18.95;12.40;;;;;;;;;;5053983;28;20269;-79
2021/05/01 10:10:41;;;;;;;15.13;11.10;;;;;;;;;;5054081;28;20033;-79
2021/05/01 10:13:06;;;;;;;17.60;11.27;;;;;;;;;;5053756;28;20032;-79
2021/05/01 10:15:31;;;;;;;18.23;12.02;;;;;;;;;;5053987;28;20071;-79
2021/05/01 10:18:10;;;;;;;21.10;13.20;;;;;;;;;;5053972;28;20017;-79
2021/05/01 10:20:39;;;;;;;21.02;13.35;;;;;;;;;;5052433;28;20025;-79
2021/05/01 10:23:05;;;;;;;21.35;13.52;;;;;;;;;;5052535;28;20491;-79
2021/05/01 10:25:32;;;;;;;24.73;13.65;;;;;;;;;;5052124;28;20056;-79
2021/05/01 10:28:01;;;;;;;22.85;14.77;;;;;;;;;;5053767;28;20021;-79
2021/05/01 10:30:46;;;;;;;28.02;14.68;;;;;;;;;;5053611;28;20028;-79
2021/05/01 10:33:17;;;;;;;22.85;14.63;;;;;;;;;;5052379;28;20047;-79
2021/05/01 10:35:51;;;;;;;18.67;13.75;;;;;;;;;;5053324;28;20032;-79
2021/05/01 10:38:18;;;;;;;17.60;12.45;;;;;;;;;;5052398;28;20045;-79
2021/05/01 10:40:44;;;;;;;24.30;13.00;;;;;;;;;;5053300;28;20025;-79
2021/05/01 10:43:11;;;;;;;11.40;9.32;;;;;;;;;;5053446;28;20101;-79
2021/05/01 10:45:37;;;;;;;11.85;8.75;;;;;;;;;;5053411;28;20032;-79
2021/05/01 10:48:03;;;;;;;13.80;9.32;;;;;;;;;;5051868;28;20025;-79
2021/05/01 10:50:28;;;;;;;11.45;8.57;;;;;;;;;;5053292;28;20029;-79
2021/05/01 10:52:53;;;;;;;16.17;9.10;;;;;;;;;;5052017;28;20021;-79
2021/05/01 10:55:18;;;;;;;11.77;9.15;;;;;;;;;;5053117;28;20032;-79
2021/05/01 10:57:55;;;;;;;9.75;7.28;;;;;;;;;;5052966;28;20380;-79
2021/05/01 11:00:21;;;;;;;13.20;9.18;;;;;;;;;;5053267;28;20025;-79
2021/05/01 11:02:48;;;;;;;12.05;8.85;;;;;;;;;;5053033;28;20032;-79
2021/05/01 11:05:13;;;;;;;14.35;9.45;;;;;;;;;;5052030;28;20032;-79
2021/05/01 11:07:43;;;;;;;16.27;10.15;;;;;;;;;;5053102;28;20033;-79
2021/05/01 11:10:10;;;;;;;13.45;10.77;;;;;;;;;;5051579;28;20017;-79
2021/05/01 11:12:39;;;;;;;16.42;10.98;;;;;;;;;;5053007;28;20460;-79
2021/05/01 11:15:05;;;;;;;17.88;10.77;;;;;;;;;;5052881;28;20382;-79
2021/05/01 11:17:31;;;;;;;13.07;8.75;;;;;;;;;;5052968;28;20372;-80
2021/05/01 11:20:00;;;;;;;14.38;9.25;;;;;;;;;;5052791;28;20029;-79
2021/05/01 11:22:26;;;;;;;14.52;9.27;;;;;;;;;;5053063;28;20021;-79
2021/05/01 11:24:52;;;;;;;17.95;11.50;;;;;;;;;;5052787;28;20081;-79
2021/05/01 11:27:18;;;;;;;20.08;11.15;;;;;;;;;;5051366;28;20024;-80
2021/05/01 11:29:43;;;;;;;20.05;12.05;;;;;;;;;;5051531;28;20380;-79
2021/05/01 11:32:08;;;;;;;16.38;9.90;;;;;;;;;;5051281;28;20021;-79
2021/05/01 11:34:34;;;;;;;18.90;11.85;;;;;;;;;;5052789;28;20033;-79
2021/05/01 11:37:02;;;;;;;16.88;12.13;;;;;;;;;;5051411;28;20512;-80
2021/05/01 11:39:28;;;;;;;16.98;11.73;;;;;;;;;;5052497;28;20019;-80
2021/05/01 11:41:54;;;;;;;16.70;11.32;;;;;;;;;;5052664;28;20013;-79
2021/05/01 11:44:19;;;;;;;15.82;11.30;;;;;;;;;;5052555;28;20069;-79
2021/05/01 11:46:50;;;;;;;17.17;11.60;;;;;;;;;;5052683;28;20029;-79
2021/05/01 11:49:17;;;;;;;14.30;11.57;;;;;;;;;;5052429;28;20049;-79
2021/05/01 11:51:49;;;;;;;14.38;11.68;;;;;;;;;;5052544;28;20461;-79
2021/05/01 11:54:14;;;;;;;;;;;;;;;;;;5052802;28;20029;-79
2021/05/01 11:56:50;;;;;;;20.88;10.48;;;;;;;;;;5052579;28;19962;-79
2021/05/01 11:59:16;;;;;;;13.68;10.50;;;;;;;;;;5052924;28;20348;-80
2021/05/01 12:01:49;;;;;;;16.90;10.30;;;;;;;;;;5051045;28;20490;-79
2021/05/01 12:04:16;;;;;;;16.15;11.02;;;;;;;;;;5051205;28;20071;-79
2021/05/01 12:06:43;;;;;;;18.08;11.05;;;;;;;;;;5056275;28;20055;-79
2021/05/01 12:09:16;;;;;;;16.38;10.50;;;;;;;;;;5056346;28;20017;-79
2021/05/01 12:11:45;;;;;;;15.85;11.48;;;;;;;;;;5054982;28;20029;-80
2021/05/01 12:14:11;;;;;;;20.90;10.60;;;;;;;;;;5045893;28;20074;-79
2021/05/01 12:16:37;;;;;;;17.95;11.38;;;;;;;;;;5052630;28;20025;-79
2021/05/01 12:19:02;;;;;;;11.90;10.07;;;;;;;;;;5056307;28;20048;-79
2021/05/01 12:21:29;;;;;;;15.93;8.60;;;;;;;;;;5056070;28;20009;-80
2021/05/01 12:23:58;;;;;;;12.30;7.90;;;;;;;;;;5054733;28;20372;-79
2021/05/01 12:26:44;;;;;;;13.43;7.35;;;;;;;;;;5056331;28;20100;-79
2021/05/01 12:29:18;;;;;;;13.38;7.32;;;;;;;;;;5055559;28;20057;-79
2021/05/01 12:31:44;;;;;;;11.32;7.60;;;;;;;;;;5056054;28;20084;-79
2021/05/01 12:34:10;;;;;;;13.90;8.40;;;;;;;;;;5055819;28;20032;-79
2021/05/01 12:36:39;;;;;;;12.50;7.80;;;;;;;;;;5054639;28;20112;-79
2021/05/01 12:39:04;;;;;;;13.07;8.00;;;;;;;;;;5054415;28;20021;-79
2021/05/01 12:41:30;;;;;;;11.02;6.97;;;;;;;;;;5056194;28;20016;-79
2021/05/01 12:43:56;;;;;;;9.45;7.05;;;;;;;;;;5055812;28;20049;-79
2021/05/01 12:46:30;;;;;;;10.77;8.18;;;;;;;;;;5055508;28;20388;-79
2021/05/01 12:48:56;;;;;;;12.55;8.65;;;;;;;;;;5054459;28;20334;-79
2021/05/01 12:51:27;;;;;;;10.50;8.10;;;;;;;;;;5055481;28;20412;-79
2021/05/01 12:53:53;;;;;;;12.85;7.95;;;;;;;;;;5055929;28;20021;-80
2021/05/01 12:56:19;;;;;;;13.10;8.15;;;;;;;;;;5055685;28;20452;-79
2021/05/01 12:58:44;;;;;;;14.77;7.72;;;;;;;;;;5054160;28;20096;-79
2021/05/01 13:01:23;;;;;;;11.30;7.57;;;;;;;;;;5055314;28;20060;-79
2021/05/01 13:04:07;;;;;;;15.05;6.70;;;;;;;;;;5054143;28;20052;-80
2021/05/01 13:06:32;;;;;;;8.85;7.13;;;;;;;;;;5055234;28;20017;-79
2021/05/01 13:08:58;;;;;;;10.27;7.05;;;;;;;;;;5055470;28;20031;-80
2021/05/01 13:11:30;;;;;;;13.15;6.55;;;;;;;;;;5053846;28;20488;-80
2021/05/01 13:14:14;;;;;;;11.70;7.40;;;;;;;;;;5055170;28;20107;-80
2021/05/01 13:16:57;;;;;;;10.25;7.15;;;;;;;;;;5051346;28;20029;-79
2021/05/01 13:19:22;;;;;;;10.18;7.00;;;;;;;;;;5053965;28;20468;-80
2021/05/01 13:21:52;;;;;;;11.40;7.47;;;;;;;;;;5053620;28;20023;-80
2021/05/01 13:24:17;;;;;;;9.82;7.70;;;;;;;;;;5054903;28;20016;-80
2021/05/01 13:26:42;;;;;;;14.60;7.53;;;;;;;;;;5052018;28;20380;-79
2021/05/01 13:29:08;;;;;;;14.27;8.82;;;;;;;;;;5043473;28;20013;-80
2021/05/01 13:31:34;;;;;;;11.68;8.43;;;;;;;;;;5055129;28;20025;-80
2021/05/01 13:33:59;;;;;;;14.85;8.07;;;;;;;;;;5054787;28;20380;-79
2021/05/01 13:36:25;;;;;;;11.70;7.85;;;;;;;;;;5054613;28;20131;-80
2021/05/01 13:38:50;;;;;;;14.93;7.80;;;;;;;;;;5054751;28;20021;-80
2021/05/01 13:41:18;;;;;;;11.70;7.68;;;;;;;;;;5053236;28;20066;-80
2021/05/01 13:43:53;;;;;;;12.32;8.68;;;;;;;;;;5054801;28;20453;-80
2021/05/01 13:46:20;;;;;;;13.50;8.15;;;;;;;;;;5054906;28;20029;-80
2021/05/01 13:48:46;;;;;;;11.73;8.05;;;;;;;;;;5053082;28;20053;-80
2021/05/01 13:51:11;;;;;;;13.05;7.78;;;;;;;;;;5054330;28;20017;-80
2021/05/01 13:53:37;;;;;;;12.50;8.13;;;;;;;;;;5053177;28;20032;-80
2021/05/01 13:56:02;;;;;;;12.02;7.57;;;;;;;;;;5054126;28;20025;-80
2021/05/01 13:58:29;;;;;;;11.23;6.95;;;;;;;;;;5054633;28;20040;-80
2021/05/01 14:00:56;;;;;;;10.02;6.88;;;;;;;;;;5054138;28;20017;-80
2021/05/01 14:03:26;;;;;;;8.73;6.60;;;;;;;;;;5052689;28;20017;-80
2021/05/01 14:05:52;;;;;;;15.15;7.10;;;;;;;;;;5052884;28;20017;-79
2021/05/01 14:08:17;;;;;;;8.95;6.20;;;;;;;;;;5053819;28;20017;-79
2021/05/01 14:10:43;;;;;;;9.52;6.28;;;;;;;;;;5054120;28;20366;-80
2021/05/01 14:13:19;;;;;;;11.07;6.50;;;;;;;;;;5053870;28;20483;-80
2021/05/01 14:15:44;;;;;;;10.75;6.55;;;;;;;;;;5053792;28;20048;-80
2021/05/01 14:18:10;;;;;;;12.20;6.55;;;;;;;;;;5052522;28;20021;-80